Time;durP1;ratioP1;P1;durP2;ratioP2;P2;SDS_P1;SDS_P2;PMS_P1;PMS_P2;Temp;Humidity;BMP_temperature;BMP_pressure;BME280_temperature;BME280_humidity;BME280_pressure;Samples;Min_cycle;Max_cycle;Signal;HPM_P1;HPM_P2
2023/04/24 00:01:07;;;;;;;;;;;;;;;15.76;nan;100474.84;5061716;28;19920;-88
2023/04/24 00:03:32;;;;;;;;;;;;;;;15.71;nan;100474.91;5068388;28;20019;-87
2023/04/24 00:05:58;;;;;;;;;;;;;;;15.68;nan;100464.69;5065802;28;20016;-87
2023/04/24 00:08:24;;;;;;;;;;;;;;;15.65;nan;100460.66;5059948;28;20281;-87
2023/04/24 00:10:49;;;;;;;;;;;;;;;15.60;nan;100452.59;5062852;28;19917;-87
2023/04/24 00:13:15;;;;;;;;;;;;;;;15.55;nan;100451.84;5059365;28;20047;-87
2023/04/24 00:15:40;;;;;;;;;;;;;;;15.48;nan;100440.59;5058121;28;19923;-87
2023/04/24 00:18:05;;;;;;;;;;;;;;;15.46;nan;100448.19;5053144;28;19920;-87
2023/04/24 00:20:32;;;;;;;;;;;;;;;15.41;nan;100439.03;5047900;28;19929;-87
2023/04/24 00:22:57;;;;;;;;;;;;;;;15.40;nan;100442.00;5050182;28;19930;-87
2023/04/24 00:25:23;;;;;;;;;;;;;;;15.38;nan;100438.78;5055439;28;19920;-88
2023/04/24 00:27:48;;;;;;;;;;;;;;;15.37;nan;100426.38;5048224;28;19917;-87
2023/04/24 00:30:13;;;;;;;;;;;;;;;15.36;nan;100430.19;5051762;28;19920;-87
2023/04/24 00:32:39;;;;;;;;;;;;;;;15.33;nan;100420.78;5061270;28;19920;-87
2023/04/24 00:35:05;;;;;;;;;;;;;;;15.31;nan;100422.16;5055118;28;19939;-88
2023/04/24 00:37:31;;;;;;;;;;;;;;;15.28;nan;100417.34;5048553;28;19962;-87
2023/04/24 00:39:56;;;;;;;;;;;;;;;15.24;nan;100419.78;5049682;28;20017;-87
2023/04/24 00:42:22;;;;;;;;;;;;;;;15.23;nan;100420.06;5047017;28;19925;-87
2023/04/24 00:44:47;;;;;;;;;;;;;;;15.19;nan;100414.44;5050311;28;20023;-87
2023/04/24 00:47:12;;;;;;;;;;;;;;;15.14;nan;100411.00;5054392;28;19927;-87
2023/04/24 00:49:38;;;;;;;;;;;;;;;15.08;nan;100416.47;5045752;28;19921;-87
2023/04/24 00:52:08;;;;;;;;;;;;;;;15.05;nan;100408.13;5054778;28;19920;-87
2023/04/24 00:54:34;;;;;;;;;;;;;;;15.02;nan;100408.69;5065500;28;19950;-87
2023/04/24 00:57:01;;;;;;;;;;;;;;;15.00;nan;100413.56;5062526;28;19920;-87
2023/04/24 00:59:26;;;;;;;;;;;;;;;14.98;nan;100404.97;5038634;28;20022;-87
2023/04/24 01:01:52;;;;;;;;;;;;;;;14.96;nan;100399.03;5060429;28;20375;-87
2023/04/24 01:04:17;;;;;;;;;;;;;;;14.96;nan;100393.66;5059499;28;19921;-87
2023/04/24 01:06:44;;;;;;;;;;;;;;;14.97;nan;100390.66;5049301;28;20019;-87
2023/04/24 01:09:11;;;;;;;;;;;;;;;14.96;nan;100380.97;5046321;28;19966;-87
2023/04/24 01:11:36;;;;;;;;;;;;;;;14.94;nan;100380.44;5049326;28;19959;-88
2023/04/24 01:14:02;;;;;;;;;;;;;;;14.93;nan;100372.66;5051327;28;19971;-87
2023/04/24 01:16:27;;;;;;;;;;;;;;;14.91;nan;100375.63;5054802;28;19921;-88
2023/04/24 01:18:53;;;;;;;;;;;;;;;14.90;nan;100378.59;5051567;28;20785;-88
2023/04/24 01:21:20;;;;;;;;;;;;;;;14.87;nan;100362.97;5046068;28;20539;-87
2023/04/24 01:23:45;;;;;;;;;;;;;;;14.82;nan;100366.53;5047806;28;19961;-87
2023/04/24 01:26:11;;;;;;;;;;;;;;;14.79;nan;100356.31;5047509;28;19917;-87
2023/04/24 01:28:37;;;;;;;;;;;;;;;14.78;nan;100360.91;5048682;28;19917;-87
2023/04/24 01:31:03;;;;;;;;;;;;;;;14.78;nan;100365.50;5047601;28;19924;-87
2023/04/24 01:33:28;;;;;;;;;;;;;;;14.76;nan;100367.69;5059084;28;19924;-87
2023/04/24 01:35:54;;;;;;;;;;;;;;;14.72;nan;100362.06;5034141;28;20406;-87
2023/04/24 01:38:20;;;;;;;;;;;;;;;14.72;nan;100362.06;5028783;28;19924;-87
2023/04/24 01:40:46;;;;;;;;;;;;;;;14.70;nan;100361.53;5044975;28;19931;-87
2023/04/24 01:43:12;;;;;;;;;;;;;;;14.69;nan;100356.41;5044010;28;20377;-87
2023/04/24 01:45:37;;;;;;;;;;;;;;;14.67;nan;100361.28;5049197;28;19924;-87
2023/04/24 01:48:02;;;;;;;;;;;;;;;14.60;nan;100348.16;5047547;28;20266;-87
2023/04/24 01:50:28;;;;;;;;;;;;;;;14.56;nan;100357.91;5058831;28;19921;-87
2023/04/24 01:52:53;;;;;;;;;;;;;;;14.53;nan;100353.06;5046381;28;20425;-87
2023/04/24 01:55:19;;;;;;;;;;;;;;;14.51;nan;100341.75;5044920;28;19928;-87
2023/04/24 01:57:44;;;;;;;;;;;;;;;14.54;nan;100343.88;5048427;28;20515;-87
2023/04/24 02:00:11;;;;;;;;;;;;;;;14.56;nan;100338.22;5031766;28;19931;-87
2023/04/24 02:02:36;;;;;;;;;;;;;;;14.57;nan;100337.94;5054554;28;20258;-87
2023/04/24 02:05:02;;;;;;;;;;;;;;;14.56;nan;100339.03;5060657;28;19931;-87
2023/04/24 02:07:28;;;;;;;;;;;;;;;14.55;nan;100328.53;5056764;28;20487;-87
2023/04/24 02:09:53;;;;;;;;;;;;;;;14.51;nan;100328.28;5061390;28;20031;-87
2023/04/24 02:12:19;;;;;;;;;;;;;;;14.50;nan;100332.88;5044601;28;19920;-87
2023/04/24 02:14:44;;;;;;;;;;;;;;;14.49;nan;100325.06;5058521;28;20611;-87
2023/04/24 02:17:12;;;;;;;;;;;;;;;14.48;nan;100323.47;5057204;28;19917;-87
2023/04/24 02:19:37;;;;;;;;;;;;;;;14.45;nan;100318.63;5049882;28;20211;-87
2023/04/24 02:22:02;;;;;;;;;;;;;;;14.43;nan;100320.78;5047398;28;20342;-87
2023/04/24 02:24:28;;;;;;;;;;;;;;;14.44;nan;100312.44;5045150;28;19924;-88
2023/04/24 02:26:53;;;;;;;;;;;;;;;14.43;nan;100312.69;5048603;28;20412;-88
2023/04/24 02:29:18;;;;;;;;;;;;;;;14.42;nan;100306.50;5058475;28;20378;-87
2023/04/24 02:31:44;;;;;;;;;;;;;;;14.39;nan;100299.00;5070240;28;19924;-87
2023/04/24 02:34:10;;;;;;;;;;;;;;;14.38;nan;100296.59;5061517;28;19916;-87
2023/04/24 02:36:35;;;;;;;;;;;;;;;14.35;nan;100291.75;5047895;28;20467;-87
2023/04/24 02:39:01;;;;;;;;;;;;;;;14.33;nan;100291.22;5060504;28;19916;-87
2023/04/24 02:41:31;;;;;;;;;;;;;;;14.29;nan;100276.72;5055573;28;19940;-87
2023/04/24 02:43:57;;;;;;;;;;;;;;;14.26;nan;100270.00;5054374;28;20382;-87
2023/04/24 02:46:22;;;;;;;;;;;;;;;14.23;nan;100277.88;5049884;28;19970;-87
2023/04/24 02:48:47;;;;;;;;;;;;;;;14.23;nan;100267.09;5045461;28;20480;-87
2023/04/24 02:51:12;;;;;;;;;;;;;;;14.23;nan;100267.09;5032884;28;20388;-87
2023/04/24 02:53:38;;;;;;;;;;;;;;;14.23;nan;100267.09;5060796;28;20421;-87
2023/04/24 02:56:03;;;;;;;;;;;;;;;14.23;nan;100262.50;5059888;28;20434;-87
2023/04/24 02:58:29;;;;;;;;;;;;;;;14.21;nan;100253.91;5060399;28;19920;-87
2023/04/24 03:00:55;;;;;;;;;;;;;;;14.20;nan;100260.38;5054034;28;20333;-87
2023/04/24 03:03:21;;;;;;;;;;;;;;;14.19;nan;100270.34;5055050;28;19920;-87
2023/04/24 03:05:46;;;;;;;;;;;;;;;14.19;nan;100267.66;5046368;28;20408;-87
2023/04/24 03:08:12;;;;;;;;;;;;;;;14.23;nan;100269.78;5051621;28;20324;-87
2023/04/24 03:10:37;;;;;;;;;;;;;;;14.24;nan;100263.31;5038091;28;19921;-87
2023/04/24 03:13:03;;;;;;;;;;;;;;;14.22;nan;100255.50;5049334;28;19968;-87
2023/04/24 03:15:28;;;;;;;;;;;;;;;14.19;nan;100266.84;5047192;28;19925;-88
2023/04/24 03:17:54;;;;;;;;;;;;;;;14.14;nan;100251.50;5049303;28;20119;-87
2023/04/24 03:20:21;;;;;;;;;;;;;;;14.11;nan;100259.38;5031696;28;19935;-87
2023/04/24 03:22:46;;;;;;;;;;;;;;;14.07;nan;100261.81;5050699;28;21224;-87
2023/04/24 03:25:12;;;;;;;;;;;;;;;14.04;nan;100248.13;5033921;28;20240;-87
2023/04/24 03:27:37;;;;;;;;;;;;;;;13.99;nan;100251.66;5051322;28;19921;-87
2023/04/24 03:30:03;;;;;;;;;;;;;;;13.96;nan;100246.81;5052491;28;19920;-87
2023/04/24 03:32:28;;;;;;;;;;;;;;;13.93;nan;100244.69;5053871;28;20027;-87
2023/04/24 03:34:53;;;;;;;;;;;;;;;13.96;nan;100252.22;5049112;28;19931;-87
2023/04/24 03:37:19;;;;;;;;;;;;;;;14.06;nan;100252.13;5049603;28;19920;-87
2023/04/24 03:39:44;;;;;;;;;;;;;;;14.27;nan;100249.25;5052112;28;19932;-87
2023/04/24 03:42:10;;;;;;;;;;;;;;;14.43;nan;100254.25;5046611;28;19932;-87
2023/04/24 03:44:35;;;;;;;;;;;;;;;14.56;nan;100255.47;5048627;28;20225;-87
2023/04/24 03:47:01;;;;;;;;;;;;;;;14.70;nan;100256.34;5051763;28;19916;-87
2023/04/24 03:49:26;;;;;;;;;;;;;;;14.85;nan;100252.69;5047690;28;20403;-87
2023/04/24 03:51:52;;;;;;;;;;;;;;;14.98;nan;100252.00;5055445;28;19920;-87
2023/04/24 03:54:18;;;;;;;;;;;;;;;15.09;nan;100247.28;5049061;28;19924;-88
2023/04/24 03:56:43;;;;;;;;;;;;;;;15.19;nan;100254.41;5048823;28;20414;-87
2023/04/24 03:59:09;;;;;;;;;;;;;;;15.28;nan;100250.78;5048976;28;20183;-88
2023/04/24 04:01:36;;;;;;;;;;;;;;;15.37;nan;100249.03;5049279;28;19987;-88
2023/04/24 04:04:05;;;;;;;;;;;;;;;15.48;nan;100244.31;5056945;28;19916;-88
2023/04/24 04:06:31;;;;;;;;;;;;;;;15.56;nan;100245.53;5061375;28;20402;-88
2023/04/24 04:08:56;;;;;;;;;;;;;;;15.62;nan;100247.09;5053829;28;19934;-88
2023/04/24 04:11:22;;;;;;;;;;;;;;;15.66;nan;100246.22;5030470;28;19927;-88
2023/04/24 04:13:47;;;;;;;;;;;;;;;15.71;nan;100254.22;5050097;28;19920;-88
2023/04/24 04:16:13;;;;;;;;;;;;;;;15.75;nan;100259.84;5056928;28;19917;-88
2023/04/24 04:18:38;;;;;;;;;;;;;;;15.80;nan;100259.78;5060837;28;19924;-87
2023/04/24 04:21:04;;;;;;;;;;;;;;;15.86;nan;100264.00;5060221;28;19950;-87
2023/04/24 04:23:29;;;;;;;;;;;;;;;15.89;nan;100255.31;5050469;28;19979;-86
2023/04/24 04:25:55;;;;;;;;;;;;;;;15.94;nan;100257.91;5053904;28;19921;-87
2023/04/24 04:28:21;;;;;;;;;;;;;;;16.04;nan;100258.84;5057306;28;19962;-86
2023/04/24 04:30:46;;;;;;;;;;;;;;;16.10;nan;100258.47;5056264;28;19974;-86
2023/04/24 04:33:12;;;;;;;;;;;;;;;16.18;nan;100251.59;5063896;28;19917;-87
2023/04/24 04:35:37;;;;;;;;;;;;;;;16.26;nan;100248.19;5051829;28;19927;-86
2023/04/24 04:38:02;;;;;;;;;;;;;;;16.30;nan;100247.28;5061439;28;19923;-87
2023/04/24 04:40:29;;;;;;;;;;;;;;;16.35;nan;100251.03;5037341;28;20105;-87
2023/04/24 04:42:55;;;;;;;;;;;;;;;16.39;nan;100252.03;5052180;28;19924;-87
2023/04/24 04:45:21;;;;;;;;;;;;;;;16.41;nan;100244.41;5055130;28;20197;-87
2023/04/24 04:47:47;;;;;;;;;;;;;;;16.43;nan;100237.59;5051334;28;19986;-87
2023/04/24 04:50:12;;;;;;;;;;;;;;;16.45;nan;100246.22;5049876;28;20370;-87
2023/04/24 04:52:38;;;;;;;;;;;;;;;16.48;nan;100244.81;5053426;28;19917;-86
2023/04/24 04:55:03;;;;;;;;;;;;;;;16.52;nan;100241.22;5058367;28;20353;-87
2023/04/24 04:57:30;;;;;;;;;;;;;;;16.54;nan;100244.44;5062540;28;19917;-87
2023/04/24 04:59:55;;;;;;;;;;;;;;;16.60;nan;100248.63;5062946;28;19920;-87
2023/04/24 05:02:20;;;;;;;;;;;;;;;16.66;nan;100251.22;5061281;28;20263;-87
2023/04/24 05:04:46;;;;;;;;;;;;;;;16.72;nan;100250.06;5058747;28;20015;-87
2023/04/24 05:07:11;;;;;;;;;;;;;;;16.73;nan;100252.47;5056349;28;19970;-88
2023/04/24 05:09:37;;;;;;;;;;;;;;;16.75;nan;100247.56;5056104;28;19978;-87
2023/04/24 05:12:02;;;;;;;;;;;;;;;16.79;nan;100247.75;5050913;28;19944;-87
2023/04/24 05:14:28;;;;;;;;;;;;;;;16.85;nan;100244.63;5038442;28;20408;-87
2023/04/24 05:16:53;;;;;;;;;;;;;;;16.92;nan;100236.13;5050838;28;19944;-87
2023/04/24 05:19:18;;;;;;;;;;;;;;;16.98;nan;100234.91;5051890;28;19927;-87
2023/04/24 05:21:44;;;;;;;;;;;;;;;17.01;nan;100233.50;5050560;28;19928;-87
2023/04/24 05:24:09;;;;;;;;;;;;;;;17.05;nan;100229.88;5050288;28;20027;-87
2023/04/24 05:26:35;;;;;;;;;;;;;;;17.08;nan;100237.41;5053826;28;19924;-87
2023/04/24 05:29:01;;;;;;;;;;;;;;;17.12;nan;100224.88;5067465;28;19970;-87
2023/04/24 05:31:26;;;;;;;;;;;;;;;17.22;nan;100242.78;5054046;28;19921;-87
2023/04/24 05:33:52;;;;;;;;;;;;;;;17.29;nan;100242.38;5038134;28;20359;-87
2023/04/24 05:36:17;;;;;;;;;;;;;;;17.33;nan;100243.38;5053809;28;19923;-87
2023/04/24 05:38:42;;;;;;;;;;;;;;;17.38;nan;100240.53;5053456;28;19929;-87
2023/04/24 05:41:08;;;;;;;;;;;;;;;17.41;nan;100246.13;5048733;28;19932;-87
2023/04/24 05:43:33;;;;;;;;;;;;;;;17.47;nan;100239.53;5049414;28;19963;-87
2023/04/24 05:45:59;;;;;;;;;;;;;;;17.52;nan;100233.19;5053004;28;19928;-87
2023/04/24 05:48:24;;;;;;;;;;;;;;;17.60;nan;100237.06;5049737;28;19967;-87
2023/04/24 05:50:50;;;;;;;;;;;;;;;17.65;nan;100245.06;5048415;28;20202;-87
2023/04/24 05:53:16;;;;;;;;;;;;;;;17.71;nan;100249.28;5051026;28;19917;-87
2023/04/24 05:55:44;;;;;;;;;;;;;;;17.73;nan;100245.16;5050244;28;19924;-87
2023/04/24 05:58:09;;;;;;;;;;;;;;;17.79;nan;100249.38;5068920;28;20023;-87
2023/04/24 06:00:35;;;;;;;;;;;;;;;17.88;nan;100260.25;5039056;28;20075;-87
2023/04/24 06:03:00;;;;;;;;;;;;;;;17.93;nan;100262.81;5052704;28;19923;-87
2023/04/24 06:05:26;;;;;;;;;;;;;;;17.99;nan;100263.53;5052310;28;19931;-87
2023/04/24 06:07:51;;;;;;;;;;;;;;;18.01;nan;100259.38;5036328;28;20374;-87
2023/04/24 06:10:17;;;;;;;;;;;;;;;18.06;nan;100261.97;5044333;28;19916;-87
2023/04/24 06:12:42;;;;;;;;;;;;;;;18.15;nan;100261.22;5035049;28;20418;-87
2023/04/24 06:15:08;;;;;;;;;;;;;;;18.24;nan;100262.88;5052850;28;19950;-87
2023/04/24 06:17:33;;;;;;;;;;;;;;;18.30;nan;100264.31;5051487;28;19916;-87
2023/04/24 06:19:59;;;;;;;;;;;;;;;18.36;nan;100260.38;5056957;28;19962;-87
2023/04/24 06:22:24;;;;;;;;;;;;;;;18.46;nan;100266.63;5058693;28;20344;-87
2023/04/24 06:24:49;;;;;;;;;;;;;;;18.51;nan;100263.81;5051525;28;20050;-87
2023/04/24 06:27:15;;;;;;;;;;;;;;;18.57;nan;100265.25;5050324;28;19925;-87
2023/04/24 06:29:40;;;;;;;;;;;;;;;18.56;nan;100267.19;5053930;28;19921;-87
2023/04/24 06:32:08;;;;;;;;;;;;;;;18.53;nan;100264.31;5049203;28;19931;-87
2023/04/24 06:34:34;;;;;;;;;;;;;;;18.52;nan;100249.13;5053496;28;19916;-88
2023/04/24 06:37:00;;;;;;;;;;;;;;;18.57;nan;100246.28;5054410;28;19921;-88
2023/04/24 06:39:25;;;;;;;;;;;;;;;18.57;nan;100249.78;5061177;28;19969;-87
2023/04/24 06:41:50;;;;;;;;;;;;;;;18.54;nan;100260.47;5059193;28;19924;-87
2023/04/24 06:44:16;;;;;;;;;;;;;;;18.53;nan;100275.94;5057043;28;19916;-87
2023/04/24 06:46:42;;;;;;;;;;;;;;;18.49;nan;100274.97;5051723;28;19925;-87
2023/04/24 06:49:07;;;;;;;;;;;;;;;18.52;nan;100263.50;5064378;28;19957;-87
2023/04/24 06:51:33;;;;;;;;;;;;;;;18.57;nan;100260.63;5055915;28;20369;-87
2023/04/24 06:53:58;;;;;;;;;;;;;;;18.71;nan;100255.16;5063693;28;19916;-87
2023/04/24 06:56:23;;;;;;;;;;;;;;;18.78;nan;100255.47;5062285;28;19944;-86
2023/04/24 06:58:49;;;;;;;;;;;;;;;18.76;nan;100252.28;5057953;28;19943;-87
2023/04/24 07:01:14;;;;;;;;;;;;;;;18.77;nan;100255.78;5055548;28;19929;-87
2023/04/24 07:03:40;;;;;;;;;;;;;;;18.80;nan;100253.25;5041436;28;19974;-87
2023/04/24 07:06:05;;;;;;;;;;;;;;;18.81;nan;100252.13;5055985;28;19996;-87
2023/04/24 07:08:31;;;;;;;;;;;;;;;18.89;nan;100256.78;5056304;28;19986;-87
2023/04/24 07:10:57;;;;;;;;;;;;;;;18.95;nan;100244.66;5057992;28;19931;-86
2023/04/24 07:13:23;;;;;;;;;;;;;;;19.05;nan;100249.00;5062429;28;19971;-86
2023/04/24 07:15:50;;;;;;;;;;;;;;;19.16;nan;100235.91;5058033;28;19943;-87
2023/04/24 07:18:16;;;;;;;;;;;;;;;19.18;nan;100241.81;5052163;28;20152;-87
2023/04/24 07:20:41;;;;;;;;;;;;;;;19.20;nan;100242.31;5054540;28;19956;-87
2023/04/24 07:23:06;;;;;;;;;;;;;;;19.25;nan;100247.59;5055599;28;19924;-87
2023/04/24 07:25:32;;;;;;;;;;;;;;;19.35;nan;100258.16;5058971;28;19916;-87
2023/04/24 07:28:00;;;;;;;;;;;;;;;19.45;nan;100252.41;5055113;28;19939;-87
2023/04/24 07:30:25;;;;;;;;;;;;;;;19.56;nan;100253.69;5060549;28;20427;-86
2023/04/24 07:32:51;;;;;;;;;;;;;;;19.70;nan;100247.31;5059763;28;19921;-87
2023/04/24 07:35:16;;;;;;;;;;;;;;;19.77;nan;100253.88;5066819;28;20006;-87
2023/04/24 07:37:45;;;;;;;;;;;;;;;19.87;nan;100247.28;5070277;28;19916;-87
2023/04/24 07:40:11;;;;;;;;;;;;;;;19.93;nan;100246.03;5062743;28;19917;-86
2023/04/24 07:42:38;;;;;;;;;;;;;;;20.03;nan;100245.66;5062731;28;19938;-85
2023/04/24 07:45:03;;;;;;;;;;;;;;;20.05;nan;100248.88;5053507;28;19924;-86
2023/04/24 07:47:29;;;;;;;;;;;;;;;19.99;nan;100249.38;5058824;28;20274;-85
2023/04/24 07:49:54;;;;;;;;;;;;;;;19.98;nan;100245.06;5050478;28;19920;-86
2023/04/24 07:52:20;;;;;;;;;;;;;;;20.00;nan;100246.31;5039856;28;19917;-86
2023/04/24 07:54:45;;;;;;;;;;;;;;;20.01;nan;100255.28;5054177;28;19920;-87
2023/04/24 07:57:11;;;;;;;;;;;;;;;20.04;nan;100255.44;5057982;28;19916;-85
2023/04/24 07:59:36;;;;;;;;;;;;;;;20.11;nan;100252.22;5055307;28;19932;-86
2023/04/24 08:02:01;;;;;;;;;;;;;;;20.18;nan;100264.19;5061453;28;19920;-86
2023/04/24 08:04:27;;;;;;;;;;;;;;;20.32;nan;100258.56;5062693;28;20421;-86
2023/04/24 08:06:52;;;;;;;;;;;;;;;20.49;nan;100261.25;5064180;28;19920;-86
2023/04/24 08:09:17;;;;;;;;;;;;;;;20.60;nan;100263.59;5063642;28;19931;-87
2023/04/24 08:11:43;;;;;;;;;;;;;;;20.75;nan;100261.13;5058256;28;19920;-86
2023/04/24 08:14:08;;;;;;;;;;;;;;;20.86;nan;100266.22;5059464;28;19963;-86
2023/04/24 08:16:34;;;;;;;;;;;;;;;20.94;nan;100273.53;5062748;28;19963;-87
2023/04/24 08:19:00;;;;;;;;;;;;;;;21.06;nan;100270.91;5062468;28;19947;-86
2023/04/24 08:21:26;;;;;;;;;;;;;;;21.15;nan;100263.47;5058110;28;20498;-86
2023/04/24 08:23:52;;;;;;;;;;;;;;;21.27;nan;100260.06;5057749;28;19952;-86
2023/04/24 08:26:17;;;;;;;;;;;;;;;21.48;nan;100265.53;5052670;28;20017;-86
2023/04/24 08:28:43;;;;;;;;;;;;;;;21.60;nan;100273.78;5065022;28;19917;-86
2023/04/24 08:31:16;;;;;;;;;;;;;;;21.66;nan;100261.53;5047904;28;20023;-86
2023/04/24 08:33:44;;;;;;;;;;;;;;;21.80;nan;100267.50;5054173;28;19924;-87
2023/04/24 08:36:10;;;;;;;;;;;;;;;21.94;nan;100272.66;5058676;28;20187;-86
2023/04/24 08:38:35;;;;;;;;;;;;;;;21.97;nan;100261.88;5059794;28;19917;-87
2023/04/24 08:41:04;;;;;;;;;;;;;;;22.10;nan;100262.75;5051975;28;19928;-86
2023/04/24 08:43:31;;;;;;;;;;;;;;;22.19;nan;100258.00;5054685;28;19935;-86
2023/04/24 08:45:56;;;;;;;;;;;;;;;;;;5052446;28;19931;-87
2023/04/24 08:48:22;;;;;;;;;;;;;;;22.54;nan;100255.66;5037224;28;21370;-86
2023/04/24 08:50:50;;;;;;;;;;;;;;;22.78;nan;100260.31;5047988;28;20321;-86
2023/04/24 08:53:15;;;;;;;;;;;;;;;22.91;nan;100259.22;5054723;28;19965;-85
2023/04/24 08:55:41;;;;;;;;;;;;;;;22.91;nan;100253.75;5048038;28;20226;-87
2023/04/24 08:58:06;;;;;;;;;;;;;;;22.97;nan;100250.78;5049073;28;19924;-85
2023/04/24 09:00:32;;;;;;;;;;;;;;;23.16;nan;100248.25;5051248;28;19928;-87
2023/04/24 09:02:58;;;;;;;;;;;;;;;23.29;nan;100247.09;5059413;28;19925;-87
2023/04/24 09:05:24;;;;;;;;;;;;;;;23.56;nan;100259.22;5058807;28;19920;-86
2023/04/24 09:07:56;;;;;;;;;;;;;;;23.73;nan;100242.56;5058497;28;19931;-86
2023/04/24 09:10:22;;;;;;;;;;;;;;;23.71;nan;100244.84;5054392;28;19916;-86
2023/04/24 09:12:47;;;;;;;;;;;;;;;23.67;nan;100249.38;5053334;28;19927;-87
2023/04/24 09:15:13;;;;;;;;;;;;;;;23.62;nan;100248.84;5050921;28;20183;-86
2023/04/24 09:17:38;;;;;;;;;;;;;;;23.63;nan;100251.25;5060542;28;20029;-86
2023/04/24 09:20:04;;;;;;;;;;;;;;;23.65;nan;100246.22;5055374;28;20153;-86
2023/04/24 09:22:30;;;;;;;;;;;;;;;23.72;nan;100242.91;5056021;28;19932;-86
2023/04/24 09:25:05;;;;;;;;;;;;;;;23.92;nan;100239.16;5048259;28;19927;-87
2023/04/24 09:27:30;;;;;;;;;;;;;;;24.13;nan;100246.34;5044507;28;19917;-87
2023/04/24 09:29:56;;;;;;;;;;;;;;;24.37;nan;100249.72;5047048;28;19924;-86
2023/04/24 09:32:24;;;;;;;;;;;;;;;24.50;nan;100247.72;5049103;28;19948;-87
2023/04/24 09:35:05;;;;;;;;;;;;;;;24.58;nan;100238.50;5058127;28;19992;-87
2023/04/24 09:37:34;;;;;;;;;;;;;;;24.66;nan;100245.75;5039976;28;19924;-86
2023/04/24 09:40:24;;;;;;;;;;;;;;;24.56;nan;100235.34;5052605;28;19928;-86
2023/04/24 09:42:55;;;;;;;;;;;;;;;24.50;nan;100238.69;5045271;28;19931;-86
2023/04/24 09:45:21;;;;;;;;;;;;;;;24.53;nan;100240.72;5047979;28;19931;-86
2023/04/24 09:47:51;;;;;;;;;;;;;;;24.48;nan;100239.06;5053886;28;19925;-87
2023/04/24 09:50:16;;;;;;;;;;;;;;;24.50;nan;100235.97;5053988;28;19965;-87
2023/04/24 09:53:07;;;;;;;;;;;;;;;24.57;nan;100222.44;5053938;28;19932;-86
2023/04/24 09:55:32;;;;;;;;;;;;;;;24.64;nan;100228.09;5044970;28;19931;-86
2023/04/24 09:58:00;;;;;;;;;;;;;;;24.76;nan;100232.66;5052231;28;19921;-86
2023/04/24 10:00:29;;;;;;;;;;;;;;;24.92;nan;100230.69;5059171;28;20015;-86
2023/04/24 10:02:58;;;;;;;;;;;;;;;24.98;nan;100226.53;5054990;28;19925;-86
2023/04/24 10:05:26;;;;;;;;;;;;;;;24.86;nan;100237.59;5063405;28;20507;-86
2023/04/24 10:07:55;;;;;;;;;;;;;;;24.78;nan;100228.44;5056559;28;20010;-86
2023/04/24 10:10:21;;;;;;;;;;;;;;;24.85;nan;100231.34;5065792;28;19916;-86
2023/04/24 10:12:46;;;;;;;;;;;;;;;24.93;nan;100232.28;5062570;28;19922;-85
2023/04/24 10:15:12;;;;;;;;;;;;;;;24.99;nan;100231.69;5062378;28;19923;-87
2023/04/24 10:17:39;;;;;;;;;;;;;;;24.94;nan;100231.13;5059857;28;20488;-87
2023/04/24 10:20:06;;;;;;;;;;;;;;;24.91;nan;100234.59;5064719;28;19923;-86
2023/04/24 10:22:32;;;;;;;;;;;;;;;24.93;nan;100230.31;5059424;28;20440;-87
2023/04/24 10:24:58;;;;;;;;;;;;;;;24.94;nan;100234.66;5057305;28;19921;-87
2023/04/24 10:27:25;;;;;;;;;;;;;;;24.94;nan;100240.13;5055717;28;19923;-87
2023/04/24 10:29:53;;;;;;;;;;;;;;;24.89;nan;100234.16;5057151;28;19922;-86
2023/04/24 10:32:18;;;;;;;;;;;;;;;24.77;nan;100239.72;5058240;28;20007;-86
2023/04/24 10:34:43;;;;;;;;;;;;;;;24.73;nan;100236.91;5054839;28;19999;-86
2023/04/24 10:37:09;;;;;;;;;;;;;;;24.68;nan;100240.72;5054747;28;19923;-87
2023/04/24 10:39:35;;;;;;;;;;;;;;;24.69;nan;100249.72;5058697;28;19967;-86
2023/04/24 10:42:00;;;;;;;;;;;;;;;24.83;nan;100238.31;5058879;28;19921;-85
2023/04/24 10:44:35;;;;;;;;;;;;;;;24.87;nan;100255.63;5056450;28;20575;-86
2023/04/24 10:47:01;;;;;;;;;;;;;;;25.05;nan;100248.66;5056427;28;19923;-85
2023/04/24 10:49:30;;;;;;;;;;;;;;;25.24;nan;100253.38;5057835;28;20002;-85
2023/04/24 10:52:00;;;;;;;;;;;;;;;25.21;nan;100248.59;5059982;28;20024;-85
2023/04/24 10:54:29;;;;;;;;;;;;;;;25.19;nan;100245.44;5053752;28;19933;-85
2023/04/24 10:57:13;;;;;;;;;;;;;;;25.26;nan;100242.84;5048968;28;19924;-85
2023/04/24 10:59:39;;;;;;;;;;;;;;;25.26;nan;100246.38;5046804;28;19928;-86
2023/04/24 11:02:06;;;;;;;;;;;;;;;25.16;nan;100241.47;5051805;28;19932;-87
2023/04/24 11:04:32;;;;;;;;;;;;;;;25.10;nan;100244.81;5056810;28;19927;-86
2023/04/24 11:06:58;;;;;;;;;;;;;;;25.00;nan;100246.19;5060203;28;19920;-85
2023/04/24 11:09:26;;;;;;;;;;;;;;;24.92;nan;100242.44;5054029;28;19921;-86
2023/04/24 11:12:02;;;;;;;;;;;;;;;24.88;nan;100247.06;5058373;28;19966;-86
2023/04/24 11:14:27;;;;;;;;;;;;;;;24.82;nan;100244.97;5054439;28;20369;-86
2023/04/24 11:16:54;;;;;;;;;;;;;;;24.81;nan;100244.16;5055453;28;19917;-87
2023/04/24 11:19:26;;;;;;;;;;;;;;;24.79;nan;100243.72;5060762;28;19935;-85
2023/04/24 11:21:56;;;;;;;;;;;;;;;24.81;nan;100246.09;5053232;28;19924;-86
2023/04/24 11:24:24;;;;;;;;;;;;;;;24.74;nan;100252.19;5055467;28;19931;-86
2023/04/24 11:26:57;;;;;;;;;;;;;;;24.63;nan;100249.22;5039645;28;19965;-86
2023/04/24 11:29:37;;;;;;;;;;;;;;;24.64;nan;100248.06;5046582;28;19998;-86
2023/04/24 11:32:16;;;;;;;;;;;;;;;24.69;nan;100247.00;5055576;28;21177;-85
2023/04/24 11:34:45;;;;;;;;;;;;;;;24.79;nan;100249.22;5058105;28;19982;-86
2023/04/24 11:37:12;;;;;;;;;;;;;;;24.80;nan;100250.78;5062550;28;19920;-85
2023/04/24 11:39:38;;;;;;;;;;;;;;;24.76;nan;100252.63;5058527;28;19920;-85
2023/04/24 11:42:03;;;;;;;;;;;;;;;24.84;nan;100240.69;5062082;28;19951;-86
2023/04/24 11:44:29;;;;;;;;;;;;;;;24.93;nan;100244.03;5066724;28;20337;-86
2023/04/24 11:46:56;;;;;;;;;;;;;;;25.08;nan;100239.69;5064924;28;19921;-86
2023/04/24 11:49:21;;;;;;;;;;;;;;;25.35;nan;100237.16;5064058;28;19996;-86
2023/04/24 11:51:46;;;;;;;;;;;;;;;25.35;nan;100237.16;5062024;28;20247;-86
2023/04/24 11:54:12;;;;;;;;;;;;;;;25.38;nan;100239.19;5062223;28;20433;-87
2023/04/24 11:56:37;;;;;;;;;;;;;;;25.39;nan;100238.81;5060461;28;19984;-86
2023/04/24 11:59:04;;;;;;;;;;;;;;;25.36;nan;100239.53;5062661;28;19926;-86
2023/04/24 12:01:30;;;;;;;;;;;;;;;25.32;nan;100237.88;5058040;28;20011;-85
2023/04/24 12:03:59;;;;;;;;;;;;;;;25.25;nan;100238.50;5068405;28;19955;-86
2023/04/24 12:06:25;;;;;;;;;;;;;;;25.18;nan;100228.19;5066691;28;19920;-86
2023/04/24 12:08:52;;;;;;;;;;;;;;;25.14;nan;100224.59;5069576;28;20203;-86
2023/04/24 12:11:18;;;;;;;;;;;;;;;25.16;nan;100230.50;5069747;28;19956;-86
2023/04/24 12:13:45;;;;;;;;;;;;;;;24.97;nan;100217.53;5063689;28;19924;-86
2023/04/24 12:16:10;;;;;;;;;;;;;;;24.94;nan;100231.91;5063993;28;19928;-86
2023/04/24 12:18:41;;;;;;;;;;;;;;;24.87;nan;100228.22;5055924;28;19921;-86
2023/04/24 12:21:16;;;;;;;;;;;;;;;24.78;nan;100225.69;5059024;28;19996;-86
2023/04/24 12:23:43;;;;;;;;;;;;;;;24.68;nan;100220.75;5060793;28;20010;-86
2023/04/24 12:26:08;;;;;;;;;;;;;;;24.65;nan;100221.47;5059928;28;19917;-85
2023/04/24 12:28:35;;;;;;;;;;;;;;;24.65;nan;100226.94;5061787;28;19927;-86
2023/04/24 12:31:00;;;;;;;;;;;;;;;24.62;nan;100222.19;5056418;28;20483;-86
2023/04/24 12:33:26;;;;;;;;;;;;;;;24.68;nan;100231.72;5058041;28;19917;-86
2023/04/24 12:35:55;;;;;;;;;;;;;;;24.78;nan;100220.22;5058721;28;19928;-86
2023/04/24 12:38:25;;;;;;;;;;;;;;;24.86;nan;100221.16;5052912;28;20382;-86
2023/04/24 12:41:04;;;;;;;;;;;;;;;25.02;nan;100223.91;5056071;28;19933;-86
2023/04/24 12:43:29;;;;;;;;;;;;;;;25.14;nan;100221.06;5051813;28;19952;-86
2023/04/24 12:45:55;;;;;;;;;;;;;;;25.16;nan;100219.53;5052787;28;19970;-85
2023/04/24 12:48:21;;;;;;;;;;;;;;;25.16;nan;100219.53;5054848;28;20027;-86
2023/04/24 12:50:46;;;;;;;;;;;;;;;25.18;nan;100219.16;5040114;28;20725;-86
2023/04/24 12:53:12;;;;;;;;;;;;;;;25.15;nan;100217.16;5057669;28;19920;-85